createdAt,value
2022-09-04T00:00:01.596Z,16.71
2022-09-04T00:01:01.908Z,16.70
2022-09-04T00:02:02.239Z,16.68
2022-09-04T00:03:02.600Z,16.67
2022-09-04T00:04:03.006Z,16.64
2022-09-04T00:05:03.259Z,16.66
2022-09-04T00:06:03.442Z,16.63
2022-09-04T00:07:03.711Z,16.61
2022-09-04T00:08:03.972Z,16.60
2022-09-04T00:09:04.216Z,16.60
2022-09-04T00:10:04.431Z,16.60
2022-09-04T00:11:04.784Z,16.58
2022-09-04T00:12:05.002Z,16.58
2022-09-04T00:13:05.345Z,16.58
2022-09-04T00:14:05.696Z,16.58
2022-09-04T00:15:05.908Z,16.56
2022-09-04T00:16:06.257Z,16.56
2022-09-04T00:17:06.447Z,16.53
2022-09-04T00:18:06.805Z,16.53
2022-09-04T00:19:07.146Z,16.52
2022-09-04T00:20:07.357Z,16.52
2022-09-04T00:21:07.715Z,16.52
2022-09-04T00:22:07.948Z,16.52
2022-09-04T00:23:08.183Z,16.50
2022-09-04T00:24:08.405Z,16.49
2022-09-04T00:25:08.763Z,16.50
2022-09-04T00:26:08.979Z,16.49
2022-09-04T00:27:09.347Z,16.48
2022-09-04T00:28:09.699Z,16.45
2022-09-04T00:29:09.919Z,16.43
2022-09-04T00:30:10.260Z,16.45
2022-09-04T00:31:10.720Z,16.45
2022-09-04T00:32:10.922Z,16.43
2022-09-04T00:33:11.190Z,16.43
2022-09-04T00:34:11.494Z,16.43
2022-09-04T00:35:11.687Z,16.43
2022-09-04T00:36:12.032Z,16.42
2022-09-04T00:37:12.353Z,16.43
2022-09-04T00:38:12.689Z,16.43
2022-09-04T00:39:14.004Z,16.42
2022-09-04T00:40:13.341Z,16.42
2022-09-04T00:41:13.666Z,16.42
2022-09-04T00:42:13.984Z,16.38
2022-09-04T00:43:14.339Z,16.38
2022-09-04T00:44:14.697Z,16.38
2022-09-04T00:45:16.722Z,16.38
2022-09-04T00:46:15.339Z,16.38
2022-09-04T00:47:15.545Z,16.34
2022-09-04T00:48:15.902Z,16.34
2022-09-04T00:49:16.098Z,16.31
2022-09-04T00:50:16.438Z,16.31
2022-09-04T00:51:16.787Z,16.30
2022-09-04T00:52:16.998Z,16.30
2022-09-04T00:53:17.245Z,16.27
2022-09-04T00:54:17.601Z,16.30
2022-09-04T00:55:17.822Z,16.25
2022-09-04T00:56:18.194Z,16.24
2022-09-04T00:57:18.442Z,16.24
2022-09-04T00:58:18.650Z,16.23
2022-09-04T00:59:19.031Z,16.23
2022-09-04T01:00:19.241Z,16.23
2022-09-04T01:01:19.680Z,16.21
2022-09-04T01:02:19.946Z,16.20
2022-09-04T01:03:20.420Z,16.20
2022-09-04T01:04:20.511Z,16.17
2022-09-04T01:05:20.700Z,16.17
2022-09-04T01:06:21.053Z,16.17
2022-09-04T01:07:21.282Z,16.15
2022-09-04T01:08:21.603Z,16.14
2022-09-04T01:09:21.794Z,16.14
2022-09-04T01:10:22.142Z,16.12
2022-09-04T01:11:22.466Z,16.11
2022-09-04T01:12:22.797Z,16.08
2022-09-04T01:13:23.188Z,16.05
2022-09-04T01:14:23.409Z,16.04
2022-09-04T01:15:23.721Z,16.04
2022-09-04T01:16:24.110Z,16.01
2022-09-04T01:17:24.351Z,16.01
2022-09-04T01:18:24.780Z,16.01
2022-09-04T01:19:24.996Z,16.00
2022-09-04T01:20:25.317Z,16.00
2022-09-04T01:21:25.646Z,16.00
2022-09-04T01:22:25.989Z,15.96
2022-09-04T01:23:26.338Z,15.94
2022-09-04T01:24:26.699Z,15.94
2022-09-04T01:25:26.918Z,15.94
2022-09-04T01:26:27.275Z,15.93
2022-09-04T01:27:27.498Z,15.90
2022-09-04T01:28:27.720Z,15.90
2022-09-04T01:29:28.054Z,15.90
2022-09-04T01:30:28.382Z,15.87
2022-09-04T01:31:28.747Z,15.86
2022-09-04T01:32:28.962Z,15.84
2022-09-04T01:33:29.313Z,15.83
2022-09-04T01:34:29.564Z,15.83
2022-09-04T01:35:29.804Z,15.83
2022-09-04T01:36:30.140Z,15.82
2022-09-04T01:37:30.483Z,15.82
2022-09-04T01:38:30.685Z,15.82
2022-09-04T01:39:31.099Z,15.78
2022-09-04T01:40:35.327Z,15.78
2022-09-04T01:41:35.147Z,15.78
2022-09-04T01:42:32.949Z,15.76
2022-09-04T01:43:32.166Z,15.75
2022-09-04T01:44:32.505Z,15.75
2022-09-04T01:45:32.872Z,15.74
2022-09-04T01:46:33.079Z,15.74
2022-09-04T01:47:33.474Z,15.72
2022-09-04T01:48:33.721Z,15.69
2022-09-04T01:49:33.971Z,15.68
2022-09-04T01:50:34.219Z,15.68
2022-09-04T01:51:34.452Z,15.67
2022-09-04T01:52:34.660Z,15.67
2022-09-04T01:53:34.997Z,15.64
2022-09-04T01:54:35.342Z,15.60
2022-09-04T01:55:35.670Z,15.60
2022-09-04T01:56:36.016Z,15.60
2022-09-04T01:57:36.358Z,15.59
2022-09-04T01:58:36.702Z,15.56
2022-09-04T01:59:36.940Z,15.54
2022-09-04T02:00:37.992Z,15.54
2022-09-04T02:01:37.503Z,15.54
2022-09-04T02:02:37.892Z,15.51
2022-09-04T02:03:38.116Z,15.49
2022-09-04T02:04:38.474Z,15.47
2022-09-04T02:05:38.712Z,15.44
2022-09-04T02:06:38.924Z,15.41
2022-09-04T02:07:39.266Z,15.39
2022-09-04T02:08:39.610Z,15.38
2022-09-04T02:09:39.964Z,15.36
2022-09-04T02:10:40.211Z,15.38
2022-09-04T02:11:40.437Z,15.34
2022-09-04T02:12:40.754Z,15.32
2022-09-04T02:13:41.158Z,15.28
2022-09-04T02:14:41.378Z,15.27
2022-09-04T02:15:41.787Z,15.23
2022-09-04T02:16:42.045Z,15.23
2022-09-04T02:17:42.269Z,15.21
2022-09-04T02:18:42.639Z,15.21
2022-09-04T02:19:42.869Z,15.17
2022-09-04T02:20:43.120Z,15.16
2022-09-04T02:21:43.352Z,15.16
2022-09-04T02:22:43.607Z,15.14
2022-09-04T02:23:43.921Z,15.14
2022-09-04T02:24:44.297Z,15.10
2022-09-04T02:25:44.522Z,15.10
2022-09-04T02:26:44.751Z,15.07
2022-09-04T02:27:44.987Z,15.03
2022-09-04T02:28:45.211Z,15.01
2022-09-04T02:29:45.453Z,14.95
2022-09-04T02:30:45.815Z,14.91
2022-09-04T02:31:47.091Z,14.89
2022-09-04T02:32:46.244Z,14.89
2022-09-04T02:33:46.496Z,14.88
2022-09-04T02:34:46.744Z,14.86
2022-09-04T02:35:46.982Z,14.86
2022-09-04T02:36:47.195Z,14.84
2022-09-04T02:37:47.548Z,14.86
2022-09-04T02:38:47.887Z,14.86
2022-09-04T02:39:48.298Z,14.84
2022-09-04T02:40:48.537Z,14.80
2022-09-04T02:41:48.778Z,14.78
2022-09-04T02:42:49.069Z,14.80
2022-09-04T02:43:49.306Z,14.78
2022-09-04T02:44:49.526Z,14.80
2022-09-04T02:45:49.870Z,14.77
2022-09-04T02:46:50.224Z,14.77
2022-09-04T02:47:50.463Z,14.75
2022-09-04T02:48:50.800Z,14.75
2022-09-04T02:49:51.129Z,14.72
2022-09-04T02:50:51.469Z,14.70
2022-09-04T02:51:51.805Z,14.65
2022-09-04T02:52:52.152Z,14.61
2022-09-04T02:53:52.389Z,14.57
2022-09-04T02:54:52.582Z,14.54
2022-09-04T02:55:52.933Z,14.50
2022-09-04T02:56:53.155Z,14.47
2022-09-04T02:57:53.505Z,14.46
2022-09-04T02:58:53.832Z,14.46
2022-09-04T02:59:54.058Z,14.46
2022-09-04T03:00:54.548Z,14.45
2022-09-04T03:01:54.699Z,14.46
2022-09-04T03:02:54.906Z,14.43
2022-09-04T03:03:55.236Z,14.42
2022-09-04T03:04:55.574Z,14.40
2022-09-04T03:05:55.907Z,14.40
2022-09-04T03:06:56.274Z,14.42
2022-09-04T03:07:56.507Z,14.40
2022-09-04T03:08:56.776Z,14.40
2022-09-04T03:09:56.976Z,14.40
2022-09-04T03:10:57.202Z,14.40
2022-09-04T03:11:57.552Z,14.40
2022-09-04T03:12:57.898Z,14.43
2022-09-04T03:13:58.136Z,14.39
2022-09-04T03:14:58.358Z,14.37
2022-09-04T03:15:58.751Z,14.37
2022-09-04T03:16:58.970Z,14.33
2022-09-04T03:17:59.305Z,14.33
2022-09-04T03:18:59.671Z,14.32
2022-09-04T03:21:01.085Z,14.32
2022-09-04T03:22:08.988Z,14.29
2022-09-04T03:23:01.564Z,14.33
2022-09-04T03:24:01.901Z,14.29
2022-09-04T03:25:02.302Z,14.32
2022-09-04T03:26:02.544Z,14.33
2022-09-04T03:27:02.863Z,14.32
2022-09-04T03:28:03.184Z,14.36
2022-09-04T03:29:03.638Z,14.33
2022-09-04T03:30:03.740Z,14.33
2022-09-04T03:31:04.099Z,14.29
2022-09-04T03:32:15.186Z,14.25
2022-09-04T03:33:05.619Z,14.24
2022-09-04T03:34:04.883Z,14.21
2022-09-04T03:35:05.217Z,14.20
2022-09-04T03:36:05.547Z,14.18
2022-09-04T03:37:05.884Z,14.18
2022-09-04T03:38:06.216Z,14.17
2022-09-04T03:39:06.563Z,14.15
2022-09-04T03:40:06.771Z,14.12
2022-09-04T03:41:07.108Z,14.09
2022-09-04T03:42:07.449Z,14.07
2022-09-04T03:43:07.770Z,14.07
2022-09-04T03:44:08.119Z,14.06
2022-09-04T03:45:08.340Z,14.04
2022-09-04T03:46:08.731Z,14.03
2022-09-04T03:47:08.941Z,14.02
2022-09-04T03:48:09.279Z,13.97
2022-09-04T03:49:09.617Z,13.91
2022-09-04T03:50:09.942Z,13.96
2022-09-04T03:51:10.280Z,13.99
2022-09-04T03:52:10.618Z,13.96
2022-09-04T03:53:10.960Z,13.92
2022-09-04T03:54:11.330Z,13.88
2022-09-04T03:55:11.555Z,13.85
2022-09-04T03:56:11.902Z,13.82
2022-09-04T03:57:12.113Z,13.84
2022-09-04T03:58:12.523Z,13.81
2022-09-04T03:59:12.773Z,13.81
2022-09-04T04:00:13.110Z,13.82
2022-09-04T04:01:13.610Z,13.84
2022-09-04T04:02:13.742Z,13.82
2022-09-04T04:03:14.136Z,13.82
2022-09-04T04:04:14.386Z,13.81
2022-09-04T04:05:14.604Z,13.81
2022-09-04T04:06:14.933Z,13.78
2022-09-04T04:07:15.301Z,13.77
2022-09-04T04:08:15.516Z,13.75
2022-09-04T04:09:15.845Z,13.75
2022-09-04T04:10:16.189Z,13.73
2022-09-04T04:11:16.567Z,13.71
2022-09-04T04:12:16.786Z,13.71
2022-09-04T04:13:17.146Z,13.73
2022-09-04T04:14:17.378Z,13.70
2022-09-04T04:15:17.606Z,13.69
2022-09-04T04:16:17.877Z,13.67
2022-09-04T04:17:20.621Z,13.66
2022-09-04T04:18:18.493Z,13.67
2022-09-04T04:19:19.687Z,13.64
2022-09-04T04:20:19.007Z,13.63
2022-09-04T04:21:19.238Z,13.62
2022-09-04T04:22:19.467Z,13.62
2022-09-04T04:23:19.750Z,13.60
2022-09-04T04:24:19.989Z,13.57
2022-09-04T04:25:20.288Z,13.55
2022-09-04T04:26:20.530Z,13.52
2022-09-04T04:27:20.831Z,13.48
2022-09-04T04:28:21.159Z,13.51
2022-09-04T04:29:21.360Z,13.46
2022-09-04T04:30:21.684Z,13.42
2022-09-04T04:31:21.982Z,13.41
2022-09-04T04:32:22.248Z,13.42
2022-09-04T04:33:22.481Z,13.44
2022-09-04T04:34:22.709Z,13.39
2022-09-04T04:35:23.067Z,13.38
2022-09-04T04:36:23.313Z,13.41
2022-09-04T04:37:23.562Z,13.44
2022-09-04T04:38:23.823Z,13.41
2022-09-04T04:39:29.490Z,13.42
2022-09-04T04:40:25.375Z,13.44
2022-09-04T04:41:24.663Z,13.42
2022-09-04T04:42:24.903Z,13.41
2022-09-04T04:43:25.167Z,13.38
2022-09-04T04:44:25.393Z,13.33
2022-09-04T04:45:25.646Z,13.32
2022-09-04T04:46:25.930Z,13.29
2022-09-04T04:47:26.169Z,13.26
2022-09-04T04:48:26.559Z,13.26
2022-09-04T04:49:26.669Z,13.22
2022-09-04T04:50:26.926Z,13.23
2022-09-04T04:51:27.187Z,13.25
2022-09-04T04:52:27.480Z,13.22
2022-09-04T04:53:27.719Z,13.19
2022-09-04T04:54:27.979Z,13.17
2022-09-04T04:55:28.237Z,13.19
2022-09-04T04:56:28.494Z,13.17
2022-09-04T04:57:28.769Z,13.15
2022-09-04T04:58:29.039Z,13.17
2022-09-04T04:59:29.289Z,13.17
2022-09-04T05:00:29.570Z,13.19
2022-09-04T05:01:29.866Z,13.22
2022-09-04T05:02:30.263Z,13.20
2022-09-04T05:03:30.381Z,13.22
2022-09-04T05:04:30.648Z,13.22
2022-09-04T05:05:30.888Z,13.22
2022-09-04T05:06:31.142Z,13.20
2022-09-04T05:07:31.411Z,13.25
2022-09-04T05:08:31.671Z,13.25
2022-09-04T05:09:31.924Z,13.26
2022-09-04T05:10:32.171Z,13.26
2022-09-04T05:11:32.431Z,13.23
2022-09-04T05:12:32.701Z,13.22
2022-09-04T05:13:32.952Z,13.19
2022-09-04T05:14:33.206Z,13.17
2022-09-04T05:15:36.005Z,13.17
2022-09-04T05:16:34.823Z,13.22
2022-09-04T05:17:34.024Z,13.28
2022-09-04T05:18:34.275Z,13.46
2022-09-04T05:19:34.541Z,13.70
2022-09-04T05:20:34.795Z,13.89
2022-09-04T05:21:35.042Z,14.07
2022-09-04T05:22:35.314Z,14.27
2022-09-04T05:23:35.565Z,14.43
2022-09-04T05:24:35.819Z,14.51
2022-09-04T05:25:36.074Z,14.58
2022-09-04T05:26:36.336Z,14.64
2022-09-04T05:27:36.575Z,14.68
2022-09-04T05:28:36.887Z,14.77
2022-09-04T05:29:37.157Z,14.84
2022-09-04T05:30:37.406Z,14.89
2022-09-04T05:31:37.879Z,14.94
2022-09-04T05:32:38.874Z,14.98
2022-09-04T05:33:38.169Z,15.02
2022-09-04T05:34:38.412Z,15.09
2022-09-04T05:35:38.641Z,15.10
2022-09-04T05:36:38.920Z,15.11
2022-09-04T05:37:39.186Z,15.11
2022-09-04T05:38:39.434Z,15.13
2022-09-04T05:39:39.713Z,15.23
2022-09-04T05:40:39.952Z,15.31
2022-09-04T05:41:40.202Z,15.35
2022-09-04T05:42:40.474Z,15.43
2022-09-04T05:43:40.722Z,15.50
2022-09-04T05:44:40.964Z,15.53
2022-09-04T05:45:41.225Z,15.51
2022-09-04T05:46:41.536Z,15.54
2022-09-04T05:47:41.845Z,15.57
2022-09-04T05:48:42.107Z,15.56
2022-09-04T05:49:42.388Z,15.54
2022-09-04T05:50:42.726Z,15.51
2022-09-04T05:51:42.989Z,15.39
2022-09-04T05:52:43.264Z,15.25
2022-09-04T05:53:43.514Z,15.13
2022-09-04T05:54:43.835Z,15.14
2022-09-04T05:55:44.099Z,15.03
2022-09-04T05:56:44.365Z,14.89
2022-09-04T05:57:44.669Z,14.75
2022-09-04T05:58:44.947Z,14.68
2022-09-04T05:59:45.187Z,14.64
2022-09-04T06:00:45.461Z,14.62
2022-09-04T06:01:49.834Z,14.61
2022-09-04T06:02:47.089Z,14.61
2022-09-04T06:03:46.313Z,14.60
2022-09-04T06:04:46.574Z,14.54
2022-09-04T06:05:46.835Z,14.50
2022-09-04T06:06:47.103Z,14.54
2022-09-04T06:07:47.367Z,14.60
2022-09-04T06:08:47.640Z,14.72
2022-09-04T06:09:47.892Z,14.80
2022-09-04T06:10:48.160Z,14.92
2022-09-04T06:11:49.184Z,15.07
2022-09-04T06:12:48.706Z,15.23
2022-09-04T06:13:48.965Z,15.31
2022-09-04T06:14:49.242Z,15.41
2022-09-04T06:15:49.569Z,15.53
2022-09-04T06:16:49.802Z,15.65
2022-09-04T06:17:50.068Z,15.68
2022-09-04T06:18:50.333Z,15.59
2022-09-04T06:19:50.625Z,15.51
2022-09-04T06:20:50.884Z,15.46
2022-09-04T06:21:52.625Z,15.38
2022-09-04T06:22:55.042Z,15.25
2022-09-04T06:23:52.467Z,15.13
2022-09-04T06:24:51.949Z,15.02
2022-09-04T06:25:52.967Z,14.96
2022-09-04T06:26:53.197Z,14.94
2022-09-04T06:27:52.692Z,14.88
2022-09-04T06:28:52.970Z,14.81
2022-09-04T06:29:53.248Z,14.77
2022-09-04T06:30:54.211Z,14.73
2022-09-04T06:31:53.740Z,14.72
2022-09-04T06:32:53.998Z,14.72
2022-09-04T06:33:54.271Z,14.69
2022-09-04T06:34:54.543Z,14.62
2022-09-04T06:35:54.823Z,14.62
2022-09-04T06:36:55.082Z,14.55
2022-09-04T06:37:55.411Z,14.57
2022-09-04T06:38:55.692Z,14.60
2022-09-04T06:39:56.028Z,14.64
2022-09-04T06:40:56.302Z,14.69
2022-09-04T06:41:56.594Z,14.69
2022-09-04T06:42:56.832Z,14.72
2022-09-04T06:43:57.097Z,14.77
2022-09-04T06:44:57.379Z,14.83
2022-09-04T06:46:02.001Z,14.84
2022-09-04T06:46:57.979Z,14.88
2022-09-04T06:47:58.245Z,14.91
2022-09-04T06:48:58.506Z,14.89
2022-09-04T06:49:58.756Z,14.86
2022-09-04T06:50:59.017Z,14.84
2022-09-04T06:51:59.257Z,14.86
2022-09-04T06:53:03.974Z,14.84
2022-09-04T06:53:59.834Z,14.86
2022-09-04T06:55:00.071Z,14.86
2022-09-04T06:56:01.086Z,14.83
2022-09-04T06:57:00.557Z,14.84
2022-09-04T06:58:00.800Z,14.84
2022-09-04T06:59:01.616Z,14.86
2022-09-04T07:00:01.502Z,14.88
2022-09-04T07:01:01.739Z,14.91
2022-09-04T07:02:02.134Z,14.92
2022-09-04T07:03:02.302Z,14.92
2022-09-04T07:04:02.549Z,14.92
2022-09-04T07:05:02.792Z,14.91
2022-09-04T07:06:03.043Z,14.92
2022-09-04T07:07:04.257Z,14.91
2022-09-04T07:08:03.562Z,14.92
2022-09-04T07:09:03.814Z,14.94
2022-09-04T07:10:07.244Z,14.92
2022-09-04T07:11:05.423Z,14.95
2022-09-04T07:12:04.714Z,14.96
2022-09-04T07:13:04.969Z,14.99
2022-09-04T07:14:05.264Z,14.99
2022-09-04T07:15:05.527Z,15.02
2022-09-04T07:16:05.962Z,15.03
2022-09-04T07:17:07.132Z,15.06
2022-09-04T07:18:06.479Z,15.07
2022-09-04T07:19:06.738Z,15.07
2022-09-04T07:20:07.007Z,15.07
2022-09-04T07:21:07.310Z,15.06
2022-09-04T07:22:07.631Z,15.03
2022-09-04T07:23:07.898Z,15.03
2022-09-04T07:24:08.166Z,15.03
2022-09-04T07:25:08.440Z,15.09
2022-09-04T07:26:08.801Z,15.10
2022-09-04T07:27:08.938Z,15.11
2022-09-04T07:28:09.220Z,15.14
2022-09-04T07:29:09.507Z,15.17
2022-09-04T07:30:09.753Z,15.20
2022-09-04T07:31:10.030Z,15.25
2022-09-04T07:32:10.281Z,15.27
2022-09-04T07:33:10.552Z,15.31
2022-09-04T07:34:10.841Z,15.29
2022-09-04T07:35:11.095Z,15.29
2022-09-04T07:36:11.353Z,15.31
2022-09-04T07:37:12.182Z,15.31
2022-09-04T07:38:11.864Z,15.34
2022-09-04T07:39:12.112Z,15.35
2022-09-04T07:40:12.427Z,15.35
2022-09-04T07:41:14.871Z,15.36
2022-09-04T07:42:14.054Z,15.38
2022-09-04T07:43:13.246Z,15.35
2022-09-04T07:44:13.515Z,15.39
2022-09-04T07:45:13.790Z,15.41
2022-09-04T07:46:14.144Z,15.43
2022-09-04T07:47:14.314Z,15.43
2022-09-04T07:48:14.547Z,15.46
2022-09-04T07:49:14.837Z,15.50
2022-09-04T07:50:15.105Z,15.50
2022-09-04T07:51:15.387Z,15.51
2022-09-04T07:52:15.668Z,15.53
2022-09-04T07:53:15.928Z,15.56
2022-09-04T07:54:22.430Z,15.57
2022-09-04T07:55:17.423Z,15.56
2022-09-04T07:56:16.736Z,15.59
2022-09-04T07:57:17.016Z,15.62
2022-09-04T07:58:17.270Z,15.65
2022-09-04T07:59:17.661Z,15.69
2022-09-04T08:00:17.996Z,15.74
2022-09-04T08:01:18.155Z,15.76
2022-09-04T08:02:18.411Z,15.80
2022-09-04T08:03:18.672Z,15.83
2022-09-04T08:04:18.929Z,15.86
2022-09-04T08:05:20.131Z,15.89
2022-09-04T08:06:19.470Z,15.90
2022-09-04T08:07:19.723Z,15.90
2022-09-04T08:08:20.046Z,15.90
2022-09-04T08:09:20.263Z,15.92
2022-09-04T08:10:20.518Z,15.94
2022-09-04T08:11:20.800Z,15.93
2022-09-04T08:12:21.065Z,15.97
2022-09-04T08:13:21.313Z,16.00
2022-09-04T08:14:21.601Z,16.02
2022-09-04T08:15:22.095Z,16.07
2022-09-04T08:16:22.233Z,16.08
2022-09-04T08:17:22.506Z,16.11
2022-09-04T08:18:22.792Z,16.12
2022-09-04T08:19:23.068Z,16.15
2022-09-04T08:20:23.429Z,16.20
2022-09-04T08:21:23.590Z,16.23
2022-09-04T08:22:28.137Z,16.28
2022-09-04T08:23:24.101Z,16.31
2022-09-04T08:24:24.369Z,16.34
2022-09-04T08:25:24.649Z,16.35
2022-09-04T08:26:24.941Z,16.39
2022-09-04T08:27:25.190Z,16.43
2022-09-04T08:28:25.547Z,16.45
2022-09-04T08:29:25.758Z,16.48
2022-09-04T08:30:26.086Z,16.49
2022-09-04T08:31:26.306Z,16.50
2022-09-04T08:32:36.733Z,16.56
2022-09-04T08:33:27.953Z,16.58
2022-09-04T08:34:27.202Z,16.61
2022-09-04T08:35:27.678Z,16.64
2022-09-04T08:36:27.852Z,16.66
2022-09-04T08:37:28.300Z,16.67
2022-09-04T08:38:28.406Z,16.71
2022-09-04T08:39:28.802Z,16.75
2022-09-04T08:40:28.941Z,16.78
2022-09-04T08:41:29.215Z,16.81
2022-09-04T08:42:29.514Z,16.82
2022-09-04T08:43:29.736Z,16.85
2022-09-04T08:44:29.985Z,16.91
2022-09-04T08:45:30.270Z,16.96
2022-09-04T08:46:30.721Z,16.97
2022-09-04T08:47:30.866Z,17.00
2022-09-04T08:48:31.155Z,17.01
2022-09-04T08:49:31.328Z,17.06
2022-09-04T08:50:31.606Z,17.08
2022-09-04T08:51:31.865Z,17.12
2022-09-04T08:52:32.204Z,17.14
2022-09-04T08:53:32.461Z,17.14
2022-09-04T08:54:32.712Z,17.12
2022-09-04T08:55:33.018Z,17.15
2022-09-04T08:56:33.302Z,17.19
2022-09-04T08:57:33.593Z,17.23
2022-09-04T08:58:34.496Z,17.28
2022-09-04T08:59:34.173Z,17.30
2022-09-04T09:00:34.422Z,17.34
2022-09-04T09:01:35.000Z,17.36
2022-09-04T09:02:35.018Z,17.41
2022-09-04T09:03:35.320Z,17.43
2022-09-04T09:04:35.585Z,17.46
2022-09-04T09:05:35.844Z,17.51
2022-09-04T09:06:36.155Z,17.55
2022-09-04T09:07:36.506Z,17.58
2022-09-04T09:08:36.673Z,17.59
2022-09-04T09:09:36.985Z,17.66
2022-09-04T09:10:37.257Z,17.64
2022-09-04T09:11:37.528Z,17.64
2022-09-04T09:12:41.464Z,17.70
2022-09-04T09:13:38.357Z,17.70
2022-09-04T09:14:38.480Z,17.71
2022-09-04T09:15:38.771Z,17.70
2022-09-04T09:16:39.103Z,17.70
2022-09-04T09:17:39.269Z,17.75
2022-09-04T09:18:40.750Z,17.77
2022-09-04T09:19:39.802Z,17.78
2022-09-04T09:20:40.069Z,17.79
2022-09-04T09:21:40.382Z,17.79
2022-09-04T09:27:41.942Z,17.99
2022-09-04T09:28:42.207Z,18.00
2022-09-04T09:29:42.294Z,18.05
2022-09-04T09:30:42.683Z,18.11
2022-09-04T09:31:42.796Z,18.17
2022-09-04T09:32:43.062Z,18.20
2022-09-04T09:33:43.393Z,18.25
2022-09-04T09:34:43.685Z,18.27
2022-09-04T09:35:44.096Z,18.33
2022-09-04T09:36:44.320Z,18.36
2022-09-04T09:37:44.452Z,18.36
2022-09-04T09:38:44.690Z,18.41
2022-09-04T09:39:45.120Z,18.45
2022-09-04T09:40:45.287Z,18.51
2022-09-04T09:41:45.612Z,18.57
2022-09-04T09:42:45.867Z,18.58
2022-09-04T09:43:46.192Z,18.63
2022-09-04T09:44:46.450Z,18.62
2022-09-04T09:45:46.782Z,18.62
2022-09-04T09:46:47.258Z,18.60
2022-09-04T09:47:47.551Z,18.62
2022-09-04T09:48:47.852Z,18.62
2022-09-04T09:49:47.845Z,18.66
2022-09-04T09:50:48.099Z,18.66
2022-09-04T09:51:48.393Z,18.69
2022-09-04T09:52:48.685Z,18.78
2022-09-04T09:53:48.968Z,18.81
2022-09-04T09:54:49.267Z,18.85
2022-09-04T09:55:49.575Z,18.87
2022-09-04T09:56:53.843Z,18.90
2022-09-04T09:57:50.087Z,18.91
2022-09-04T09:58:50.389Z,18.98
2022-09-04T09:59:50.739Z,18.99
2022-09-04T10:00:51.077Z,18.99
2022-09-04T10:01:51.220Z,18.99
2022-09-04T10:02:51.639Z,19.02
2022-09-04T10:03:51.833Z,19.06
2022-09-04T10:04:52.004Z,19.10
2022-09-04T10:05:52.432Z,19.11
2022-09-04T10:06:52.592Z,19.16
2022-09-04T10:07:52.850Z,19.21
2022-09-04T10:08:53.260Z,19.25
2022-09-04T10:09:53.394Z,19.26
2022-09-04T10:10:53.653Z,19.28
2022-09-04T10:11:54.044Z,19.26
2022-09-04T10:12:54.264Z,19.28
2022-09-04T10:13:54.553Z,19.26
2022-09-04T10:14:55.178Z,19.26
2022-09-04T10:15:55.184Z,19.31
2022-09-04T10:16:55.658Z,19.33
2022-09-04T10:17:55.827Z,19.36
2022-09-04T10:18:56.124Z,19.37
2022-09-04T10:19:56.407Z,19.41
2022-09-04T10:20:56.697Z,19.46
2022-09-04T10:21:57.026Z,19.46
2022-09-04T10:22:57.313Z,19.48
2022-09-04T10:23:57.638Z,19.48
2022-09-04T10:24:57.926Z,19.50
2022-09-04T10:25:58.270Z,19.55
2022-09-04T10:26:58.608Z,19.55
2022-09-04T10:27:58.786Z,19.56
2022-09-04T10:28:59.107Z,19.58
2022-09-04T10:29:59.341Z,19.63
2022-09-04T10:30:59.667Z,19.66
2022-09-04T10:31:59.971Z,19.71
2022-09-04T10:33:00.319Z,19.74
2022-09-04T10:34:00.573Z,19.73
2022-09-04T10:35:00.933Z,19.68
2022-09-04T10:36:01.204Z,19.69
2022-09-04T10:37:01.574Z,19.78
2022-09-04T10:38:01.855Z,19.87
2022-09-04T10:39:02.114Z,19.95
2022-09-04T10:40:02.572Z,19.99
2022-09-04T10:41:02.566Z,20.03
2022-09-04T10:42:02.897Z,20.08
2022-09-04T10:43:03.196Z,20.10
2022-09-04T10:44:03.578Z,20.06
2022-09-04T10:45:03.838Z,20.11
2022-09-04T10:46:04.215Z,20.13
2022-09-04T10:47:04.358Z,20.17
2022-09-04T10:48:04.638Z,20.18
2022-09-04T10:49:04.922Z,20.21
2022-09-04T10:50:05.259Z,20.24
2022-09-04T10:51:05.610Z,20.26
2022-09-04T10:52:05.880Z,20.26
2022-09-04T10:53:06.128Z,20.26
2022-09-04T10:54:08.095Z,20.26
2022-09-04T10:55:06.957Z,20.28
2022-09-04T10:58:59.119Z,20.31
2022-09-04T10:59:59.426Z,20.32
2022-09-04T11:00:59.522Z,20.32
2022-09-04T11:01:59.781Z,20.33
2022-09-04T11:03:00.009Z,20.32
2022-09-04T11:04:00.245Z,20.33
2022-09-04T11:05:00.533Z,20.35
2022-09-04T11:06:00.774Z,20.32
2022-09-04T11:07:01.024Z,20.29
2022-09-04T11:08:01.264Z,20.29
2022-09-04T11:09:01.493Z,20.33
2022-09-04T11:10:01.745Z,20.36
2022-09-04T11:11:01.964Z,20.42
2022-09-04T11:12:02.222Z,20.47
2022-09-04T11:13:02.474Z,20.48
2022-09-04T11:14:02.715Z,20.50
2022-09-04T11:15:02.968Z,20.48
2022-09-04T11:16:03.238Z,20.48
2022-09-04T11:17:03.490Z,20.52
2022-09-04T11:18:03.701Z,20.48
2022-09-04T11:19:03.942Z,20.47
2022-09-04T11:20:04.201Z,20.48
2022-09-04T11:21:04.430Z,20.50
2022-09-04T11:22:04.678Z,20.51
2022-09-04T11:23:04.910Z,20.48
2022-09-04T11:24:05.163Z,20.42
2022-09-04T11:25:05.399Z,20.42
2022-09-04T11:26:05.640Z,20.47
2022-09-04T11:27:08.180Z,20.54
2022-09-04T11:28:06.209Z,20.62
2022-09-04T11:29:06.469Z,20.64
2022-09-04T11:30:06.725Z,20.67
2022-09-04T11:31:06.963Z,20.66
2022-09-04T11:32:07.211Z,20.66
2022-09-04T11:33:07.457Z,20.62
2022-09-04T11:34:07.693Z,20.55
2022-09-04T11:35:07.940Z,20.57
2022-09-04T11:36:08.189Z,20.59
2022-09-04T11:37:08.418Z,20.59
2022-09-04T11:38:08.687Z,20.66
2022-09-04T11:39:08.928Z,20.67
2022-09-04T11:40:09.239Z,20.67
2022-09-04T11:41:10.205Z,20.69
2022-09-04T11:42:09.829Z,20.73
2022-09-04T11:43:10.128Z,20.79
2022-09-04T11:44:10.407Z,20.85
2022-09-04T11:45:10.669Z,20.92
2022-09-04T11:46:10.973Z,20.94
2022-09-04T11:47:11.253Z,20.98
2022-09-04T11:48:11.540Z,21.04
2022-09-04T11:49:11.804Z,21.09
2022-09-04T11:50:12.055Z,21.14
2022-09-04T11:51:12.331Z,21.16
2022-09-04T11:52:12.624Z,21.19
2022-09-04T11:53:12.896Z,21.17
2022-09-04T11:54:15.194Z,21.14
2022-09-04T11:55:13.495Z,21.16
2022-09-04T11:56:13.814Z,21.17
2022-09-04T11:57:14.077Z,21.14
2022-09-04T11:58:14.365Z,21.16
2022-09-04T11:59:14.606Z,21.13
2022-09-04T12:00:14.887Z,21.09
2022-09-04T12:01:15.122Z,21.06
2022-09-04T12:02:15.435Z,21.04
2022-09-04T12:03:15.718Z,21.04
2022-09-04T12:04:16.017Z,21.01
2022-09-04T12:05:16.292Z,21.06
2022-09-04T12:06:16.568Z,21.07
2022-09-04T12:07:16.811Z,21.06
2022-09-04T12:08:17.140Z,21.10
2022-09-04T12:09:17.389Z,21.14
2022-09-04T12:10:17.641Z,21.19
2022-09-04T12:11:17.922Z,21.21
2022-09-04T12:12:18.177Z,21.21
2022-09-04T12:13:18.442Z,21.25
2022-09-04T12:14:18.686Z,21.31
2022-09-04T12:15:18.979Z,21.37
2022-09-04T12:16:19.268Z,21.37
2022-09-04T12:17:19.527Z,21.35
2022-09-04T12:18:19.825Z,21.34
2022-09-04T12:19:20.087Z,21.35
2022-09-04T12:20:20.355Z,21.37
2022-09-04T12:21:20.654Z,21.34
2022-09-04T12:22:20.906Z,21.31
2022-09-04T12:23:21.158Z,21.29
2022-09-04T12:24:21.426Z,21.31
2022-09-04T12:25:21.689Z,21.29
2022-09-04T12:26:21.933Z,21.32
2022-09-04T12:27:23.137Z,21.34
2022-09-04T12:28:24.300Z,21.38
2022-09-04T12:29:22.769Z,21.42
2022-09-04T12:30:23.031Z,21.43
2022-09-04T12:31:23.340Z,21.49
2022-09-04T12:32:23.623Z,21.54
2022-09-04T12:33:23.924Z,21.59
2022-09-04T12:34:24.211Z,21.61
2022-09-04T12:35:26.566Z,21.61
2022-09-04T12:36:25.724Z,21.64
2022-09-04T12:37:27.906Z,21.67
2022-09-04T12:38:25.353Z,21.64
2022-09-04T12:39:25.652Z,21.65
2022-09-04T12:40:25.932Z,21.68
2022-09-04T12:41:26.177Z,21.74
2022-09-04T12:42:26.433Z,21.80
2022-09-04T12:43:26.687Z,21.80
2022-09-04T12:44:26.957Z,21.82
2022-09-04T12:45:27.255Z,21.80
2022-09-04T12:46:27.489Z,21.80
2022-09-04T12:47:27.836Z,21.79
2022-09-04T12:48:28.112Z,21.82
2022-09-04T12:49:28.542Z,21.88
2022-09-04T12:50:28.630Z,21.91
2022-09-04T12:51:28.891Z,21.92
2022-09-04T12:52:29.196Z,21.94
2022-09-04T12:53:32.392Z,21.96
2022-09-04T12:54:30.687Z,21.96
2022-09-04T12:55:35.855Z,21.98
2022-09-04T12:56:31.357Z,21.94
2022-09-04T12:57:30.690Z,21.92
2022-09-04T12:58:32.010Z,21.92
2022-09-04T12:59:31.269Z,21.94
2022-09-04T13:00:31.644Z,21.98
2022-09-04T13:01:32.926Z,22.00
2022-09-04T13:02:32.247Z,22.03
2022-09-04T13:03:32.421Z,22.06
2022-09-04T13:04:32.740Z,22.06